sensor_id;sensor_type;location;lat;lon;timestamp;P1;durP1;ratioP1;P2;durP2;ratioP2
49978;SDS011;35869;50.990;6.962;2022-12-18T00:02:07;23.58;;;13.25;;
49978;SDS011;35869;50.990;6.962;2022-12-18T00:07:07;17.23;;;12.77;;
49978;SDS011;35869;50.990;6.962;2022-12-18T00:12:08;16.63;;;12.52;;
49978;SDS011;35869;50.990;6.962;2022-12-18T00:17:08;17.23;;;12.02;;
49978;SDS011;35869;50.990;6.962;2022-12-18T00:22:08;18.77;;;11.80;;
49978;SDS011;35869;50.990;6.962;2022-12-18T00:27:08;19.33;;;12.57;;
49978;SDS011;35869;50.990;6.962;2022-12-18T00:32:08;16.92;;;12.40;;
49978;SDS011;35869;50.990;6.962;2022-12-18T00:37:09;19.13;;;12.63;;
49978;SDS011;35869;50.990;6.962;2022-12-18T00:42:10;18.05;;;11.88;;
49978;SDS011;35869;50.990;6.962;2022-12-18T00:52:10;17.15;;;12.02;;
49978;SDS011;35869;50.990;6.962;2022-12-18T00:57:10;18.67;;;12.13;;
49978;SDS011;35869;50.990;6.962;2022-12-18T01:02:10;15.43;;;11.93;;
49978;SDS011;35869;50.990;6.962;2022-12-18T01:07:13;20.88;;;13.45;;
49978;SDS011;35869;50.990;6.962;2022-12-18T01:12:13;15.60;;;10.40;;
49978;SDS011;35869;50.990;6.962;2022-12-18T01:17:14;17.38;;;12.68;;
49978;SDS011;35869;50.990;6.962;2022-12-18T01:22:14;16.67;;;10.70;;
49978;SDS011;35869;50.990;6.962;2022-12-18T01:27:14;17.85;;;11.25;;
49978;SDS011;35869;50.990;6.962;2022-12-18T01:32:14;15.90;;;11.18;;
49978;SDS011;35869;50.990;6.962;2022-12-18T01:37:15;14.65;;;11.48;;
49978;SDS011;35869;50.990;6.962;2022-12-18T01:42:15;17.88;;;12.50;;
49978;SDS011;35869;50.990;6.962;2022-12-18T01:47:23;16.08;;;10.88;;
49978;SDS011;35869;50.990;6.962;2022-12-18T01:52:24;16.42;;;11.30;;
49978;SDS011;35869;50.990;6.962;2022-12-18T01:57:28;16.85;;;12.18;;
49978;SDS011;35869;50.990;6.962;2022-12-18T02:18:24;18.42;;;10.27;;
49978;SDS011;35869;50.990;6.962;2022-12-18T02:28:50;18.10;;;10.82;;
49978;SDS011;35869;50.990;6.962;2022-12-18T02:33:55;18.35;;;10.25;;
49978;SDS011;35869;50.990;6.962;2022-12-18T02:38:58;15.38;;;10.18;;
49978;SDS011;35869;50.990;6.962;2022-12-18T02:44:01;18.38;;;11.02;;
49978;SDS011;35869;50.990;6.962;2022-12-18T02:54:52;15.05;;;10.25;;
49978;SDS011;35869;50.990;6.962;2022-12-18T03:05:09;16.08;;;10.77;;
49978;SDS011;35869;50.990;6.962;2022-12-18T03:10:18;18.20;;;10.50;;
49978;SDS011;35869;50.990;6.962;2022-12-18T03:15:43;14.52;;;10.20;;
49978;SDS011;35869;50.990;6.962;2022-12-18T03:20:47;12.27;;;9.48;;
49978;SDS011;35869;50.990;6.962;2022-12-18T03:25:50;16.95;;;9.85;;
49978;SDS011;35869;50.990;6.962;2022-12-18T03:30:55;12.95;;;9.10;;
49978;SDS011;35869;50.990;6.962;2022-12-18T03:35:58;13.15;;;9.98;;
49978;SDS011;35869;50.990;6.962;2022-12-18T03:41:15;14.75;;;9.07;;
49978;SDS011;35869;50.990;6.962;2022-12-18T03:46:28;12.35;;;9.10;;
49978;SDS011;35869;50.990;6.962;2022-12-18T03:51:38;15.95;;;10.38;;
49978;SDS011;35869;50.990;6.962;2022-12-18T03:56:47;15.65;;;9.50;;
49978;SDS011;35869;50.990;6.962;2022-12-18T04:01:51;16.48;;;9.85;;
49978;SDS011;35869;50.990;6.962;2022-12-18T04:06:54;15.10;;;10.40;;
49978;SDS011;35869;50.990;6.962;2022-12-18T04:11:56;15.15;;;10.27;;
49978;SDS011;35869;50.990;6.962;2022-12-18T04:16:56;14.88;;;9.15;;
49978;SDS011;35869;50.990;6.962;2022-12-18T04:21:56;16.27;;;9.93;;
49978;SDS011;35869;50.990;6.962;2022-12-18T04:26:57;17.05;;;10.77;;
49978;SDS011;35869;50.990;6.962;2022-12-18T04:31:57;14.25;;;9.73;;
49978;SDS011;35869;50.990;6.962;2022-12-18T04:36:57;17.40;;;10.23;;
49978;SDS011;35869;50.990;6.962;2022-12-18T04:42:00;16.38;;;10.65;;
49978;SDS011;35869;50.990;6.962;2022-12-18T04:47:00;14.10;;;9.75;;
49978;SDS011;35869;50.990;6.962;2022-12-18T04:52:00;13.82;;;10.15;;
49978;SDS011;35869;50.990;6.962;2022-12-18T04:57:01;14.23;;;10.60;;
49978;SDS011;35869;50.990;6.962;2022-12-18T05:02:01;16.20;;;10.15;;
49978;SDS011;35869;50.990;6.962;2022-12-18T05:07:01;14.30;;;10.40;;
49978;SDS011;35869;50.990;6.962;2022-12-18T05:12:01;14.90;;;9.70;;
49978;SDS011;35869;50.990;6.962;2022-12-18T05:17:01;12.88;;;8.68;;
49978;SDS011;35869;50.990;6.962;2022-12-18T05:22:02;14.63;;;9.82;;
49978;SDS011;35869;50.990;6.962;2022-12-18T05:27:02;13.75;;;9.95;;
49978;SDS011;35869;50.990;6.962;2022-12-18T05:32:02;15.53;;;9.87;;
49978;SDS011;35869;50.990;6.962;2022-12-18T05:37:03;17.33;;;9.50;;
49978;SDS011;35869;50.990;6.962;2022-12-18T05:42:03;14.32;;;10.18;;
49978;SDS011;35869;50.990;6.962;2022-12-18T05:47:03;15.77;;;10.25;;
49978;SDS011;35869;50.990;6.962;2022-12-18T05:57:04;17.13;;;10.85;;
49978;SDS011;35869;50.990;6.962;2022-12-18T06:02:04;16.00;;;10.25;;
49978;SDS011;35869;50.990;6.962;2022-12-18T06:07:04;12.88;;;9.68;;
49978;SDS011;35869;50.990;6.962;2022-12-18T06:12:05;15.68;;;10.38;;
49978;SDS011;35869;50.990;6.962;2022-12-18T06:22:05;15.43;;;10.25;;
49978;SDS011;35869;50.990;6.962;2022-12-18T06:27:05;15.85;;;10.55;;
49978;SDS011;35869;50.990;6.962;2022-12-18T06:32:06;19.23;;;10.68;;
49978;SDS011;35869;50.990;6.962;2022-12-18T06:37:06;14.80;;;11.00;;
49978;SDS011;35869;50.990;6.962;2022-12-18T06:42:06;20.52;;;11.27;;
49978;SDS011;35869;50.990;6.962;2022-12-18T06:47:06;17.67;;;10.95;;
49978;SDS011;35869;50.990;6.962;2022-12-18T06:52:06;17.35;;;11.23;;
49978;SDS011;35869;50.990;6.962;2022-12-18T06:57:07;18.67;;;11.13;;
49978;SDS011;35869;50.990;6.962;2022-12-18T07:02:10;17.15;;;10.80;;
49978;SDS011;35869;50.990;6.962;2022-12-18T07:07:11;15.40;;;10.90;;
49978;SDS011;35869;50.990;6.962;2022-12-18T07:12:12;16.80;;;12.20;;
49978;SDS011;35869;50.990;6.962;2022-12-18T07:17:12;19.15;;;11.45;;
49978;SDS011;35869;50.990;6.962;2022-12-18T07:27:13;18.00;;;12.20;;
49978;SDS011;35869;50.990;6.962;2022-12-18T07:32:13;16.98;;;11.45;;
49978;SDS011;35869;50.990;6.962;2022-12-18T07:37:14;16.55;;;11.73;;
49978;SDS011;35869;50.990;6.962;2022-12-18T07:42:14;20.10;;;11.13;;
49978;SDS011;35869;50.990;6.962;2022-12-18T07:47:14;19.70;;;13.95;;
49978;SDS011;35869;50.990;6.962;2022-12-18T07:52:14;20.92;;;13.20;;
49978;SDS011;35869;50.990;6.962;2022-12-18T07:57:15;20.27;;;12.25;;
49978;SDS011;35869;50.990;6.962;2022-12-18T08:02:16;18.17;;;11.98;;
49978;SDS011;35869;50.990;6.962;2022-12-18T08:07:16;20.00;;;12.27;;
49978;SDS011;35869;50.990;6.962;2022-12-18T08:12:16;19.65;;;12.23;;
49978;SDS011;35869;50.990;6.962;2022-12-18T08:17:16;15.85;;;11.48;;
49978;SDS011;35869;50.990;6.962;2022-12-18T08:22:17;21.60;;;14.05;;
49978;SDS011;35869;50.990;6.962;2022-12-18T08:27:17;20.08;;;13.18;;
49978;SDS011;35869;50.990;6.962;2022-12-18T08:37:18;21.13;;;12.85;;
49978;SDS011;35869;50.990;6.962;2022-12-18T08:47:18;19.00;;;12.80;;
49978;SDS011;35869;50.990;6.962;2022-12-18T08:52:18;19.55;;;13.60;;
49978;SDS011;35869;50.990;6.962;2022-12-18T08:57:18;20.83;;;12.50;;
49978;SDS011;35869;50.990;6.962;2022-12-18T09:02:19;16.17;;;11.27;;
49978;SDS011;35869;50.990;6.962;2022-12-18T09:07:19;19.75;;;12.93;;
49978;SDS011;35869;50.990;6.962;2022-12-18T09:12:19;17.42;;;10.98;;
49978;SDS011;35869;50.990;6.962;2022-12-18T09:17:19;16.30;;;10.88;;
49978;SDS011;35869;50.990;6.962;2022-12-18T09:22:22;15.85;;;10.63;;
49978;SDS011;35869;50.990;6.962;2022-12-18T09:27:22;16.83;;;10.68;;
49978;SDS011;35869;50.990;6.962;2022-12-18T09:32:22;20.40;;;12.60;;
49978;SDS011;35869;50.990;6.962;2022-12-18T09:37:23;17.83;;;11.10;;
49978;SDS011;35869;50.990;6.962;2022-12-18T09:42:23;21.60;;;11.83;;
49978;SDS011;35869;50.990;6.962;2022-12-18T09:47:25;16.55;;;11.23;;
49978;SDS011;35869;50.990;6.962;2022-12-18T09:52:33;17.25;;;10.35;;
49978;SDS011;35869;50.990;6.962;2022-12-18T09:57:39;18.73;;;11.70;;
49978;SDS011;35869;50.990;6.962;2022-12-18T10:02:45;18.42;;;11.25;;
49978;SDS011;35869;50.990;6.962;2022-12-18T10:07:53;16.30;;;10.75;;
49978;SDS011;35869;50.990;6.962;2022-12-18T10:18:18;21.25;;;10.80;;
49978;SDS011;35869;50.990;6.962;2022-12-18T10:24:18;15.23;;;10.38;;
49978;SDS011;35869;50.990;6.962;2022-12-18T10:29:11;13.68;;;10.50;;
49978;SDS011;35869;50.990;6.962;2022-12-18T10:34:12;15.90;;;8.60;;
49978;SDS011;35869;50.990;6.962;2022-12-18T10:44:23;18.25;;;11.00;;
49978;SDS011;35869;50.990;6.962;2022-12-18T10:49:31;13.20;;;9.48;;
49978;SDS011;35869;50.990;6.962;2022-12-18T10:54:33;20.30;;;12.32;;
49978;SDS011;35869;50.990;6.962;2022-12-18T10:59:37;20.08;;;11.85;;
49978;SDS011;35869;50.990;6.962;2022-12-18T11:04:51;15.88;;;10.13;;
49978;SDS011;35869;50.990;6.962;2022-12-18T11:10:01;14.82;;;9.50;;
49978;SDS011;35869;50.990;6.962;2022-12-18T11:15:02;16.90;;;9.98;;
49978;SDS011;35869;50.990;6.962;2022-12-18T11:20:03;16.07;;;9.83;;
49978;SDS011;35869;50.990;6.962;2022-12-18T11:25:16;16.90;;;10.35;;
49978;SDS011;35869;50.990;6.962;2022-12-18T11:35:48;18.65;;;9.27;;
49978;SDS011;35869;50.990;6.962;2022-12-18T11:40:56;17.20;;;9.48;;
49978;SDS011;35869;50.990;6.962;2022-12-18T11:46:05;17.95;;;10.00;;
49978;SDS011;35869;50.990;6.962;2022-12-18T11:51:11;17.48;;;10.40;;
49978;SDS011;35869;50.990;6.962;2022-12-18T12:06:43;18.98;;;10.45;;
49978;SDS011;35869;50.990;6.962;2022-12-18T12:11:58;20.10;;;10.90;;
49978;SDS011;35869;50.990;6.962;2022-12-18T12:17:16;24.48;;;12.57;;
49978;SDS011;35869;50.990;6.962;2022-12-18T12:38:26;18.08;;;11.05;;
49978;SDS011;35869;50.990;6.962;2022-12-18T12:43:41;22.98;;;11.80;;
49978;SDS011;35869;50.990;6.962;2022-12-18T12:49:03;16.25;;;11.60;;
49978;SDS011;35869;50.990;6.962;2022-12-18T12:54:17;25.38;;;12.10;;
49978;SDS011;35869;50.990;6.962;2022-12-18T13:16:03;22.73;;;13.93;;
49978;SDS011;35869;50.990;6.962;2022-12-18T13:20:45;22.67;;;13.95;;
49978;SDS011;35869;50.990;6.962;2022-12-18T13:25:59;19.88;;;13.68;;
49978;SDS011;35869;50.990;6.962;2022-12-18T13:31:08;22.25;;;13.05;;
49978;SDS011;35869;50.990;6.962;2022-12-18T13:36:28;21.70;;;12.35;;
49978;SDS011;35869;50.990;6.962;2022-12-18T13:41:30;20.88;;;12.45;;
49978;SDS011;35869;50.990;6.962;2022-12-18T13:46:46;18.70;;;11.68;;
49978;SDS011;35869;50.990;6.962;2022-12-18T13:51:52;20.85;;;13.52;;
49978;SDS011;35869;50.990;6.962;2022-12-18T13:56:54;22.20;;;13.77;;
49978;SDS011;35869;50.990;6.962;2022-12-18T14:01:56;21.00;;;13.73;;
49978;SDS011;35869;50.990;6.962;2022-12-18T14:07:01;20.50;;;13.23;;
49978;SDS011;35869;50.990;6.962;2022-12-18T14:12:04;21.38;;;14.02;;
49978;SDS011;35869;50.990;6.962;2022-12-18T14:17:08;20.10;;;13.05;;
49978;SDS011;35869;50.990;6.962;2022-12-18T14:22:17;21.65;;;13.30;;
49978;SDS011;35869;50.990;6.962;2022-12-18T14:27:23;22.40;;;14.40;;
49978;SDS011;35869;50.990;6.962;2022-12-18T14:32:25;22.85;;;14.07;;
49978;SDS011;35869;50.990;6.962;2022-12-18T14:37:25;18.40;;;13.15;;
49978;SDS011;35869;50.990;6.962;2022-12-18T14:42:27;20.48;;;14.45;;
49978;SDS011;35869;50.990;6.962;2022-12-18T14:47:28;24.30;;;14.25;;
49978;SDS011;35869;50.990;6.962;2022-12-18T14:52:28;22.27;;;14.18;;
49978;SDS011;35869;50.990;6.962;2022-12-18T14:57:35;22.92;;;14.38;;
49978;SDS011;35869;50.990;6.962;2022-12-18T15:02:36;23.42;;;13.75;;
49978;SDS011;35869;50.990;6.962;2022-12-18T15:07:41;18.33;;;12.17;;
49978;SDS011;35869;50.990;6.962;2022-12-18T15:12:43;26.40;;;14.90;;
49978;SDS011;35869;50.990;6.962;2022-12-18T15:17:55;28.33;;;15.23;;
49978;SDS011;35869;50.990;6.962;2022-12-18T15:22:56;28.55;;;14.98;;
49978;SDS011;35869;50.990;6.962;2022-12-18T15:27:57;25.20;;;16.35;;
49978;SDS011;35869;50.990;6.962;2022-12-18T15:33:43;26.95;;;15.45;;
49978;SDS011;35869;50.990;6.962;2022-12-18T15:38:25;22.90;;;13.80;;
49978;SDS011;35869;50.990;6.962;2022-12-18T15:43:26;23.00;;;14.90;;
49978;SDS011;35869;50.990;6.962;2022-12-18T15:48:29;21.75;;;14.95;;
49978;SDS011;35869;50.990;6.962;2022-12-18T15:53:30;25.53;;;14.47;;
49978;SDS011;35869;50.990;6.962;2022-12-18T15:58:33;25.42;;;16.17;;
49978;SDS011;35869;50.990;6.962;2022-12-18T16:03:33;23.33;;;15.55;;
49978;SDS011;35869;50.990;6.962;2022-12-18T16:08:33;26.63;;;16.70;;
49978;SDS011;35869;50.990;6.962;2022-12-18T16:13:33;28.52;;;17.25;;
49978;SDS011;35869;50.990;6.962;2022-12-18T16:18:34;28.90;;;18.55;;
49978;SDS011;35869;50.990;6.962;2022-12-18T16:23:34;25.38;;;15.02;;
49978;SDS011;35869;50.990;6.962;2022-12-18T16:28:34;26.88;;;18.75;;
49978;SDS011;35869;50.990;6.962;2022-12-18T16:33:34;48.50;;;17.90;;
49978;SDS011;35869;50.990;6.962;2022-12-18T16:38:34;32.92;;;18.10;;
49978;SDS011;35869;50.990;6.962;2022-12-18T16:43:35;31.25;;;18.10;;
49978;SDS011;35869;50.990;6.962;2022-12-18T16:48:35;27.08;;;15.82;;
49978;SDS011;35869;50.990;6.962;2022-12-18T16:53:35;32.83;;;19.60;;
49978;SDS011;35869;50.990;6.962;2022-12-18T16:58:35;29.42;;;18.58;;
49978;SDS011;35869;50.990;6.962;2022-12-18T17:03:35;30.00;;;18.10;;
49978;SDS011;35869;50.990;6.962;2022-12-18T17:08:36;34.33;;;19.90;;
49978;SDS011;35869;50.990;6.962;2022-12-18T17:13:36;28.85;;;18.05;;
49978;SDS011;35869;50.990;6.962;2022-12-18T17:18:36;29.35;;;16.80;;
49978;SDS011;35869;50.990;6.962;2022-12-18T17:23:37;32.35;;;18.83;;
49978;SDS011;35869;50.990;6.962;2022-12-18T17:28:37;31.73;;;19.35;;
49978;SDS011;35869;50.990;6.962;2022-12-18T17:33:38;31.50;;;18.42;;
49978;SDS011;35869;50.990;6.962;2022-12-18T17:38:39;36.87;;;19.83;;
49978;SDS011;35869;50.990;6.962;2022-12-18T17:43:39;32.78;;;18.48;;
49978;SDS011;35869;50.990;6.962;2022-12-18T17:48:39;32.15;;;17.55;;
49978;SDS011;35869;50.990;6.962;2022-12-18T17:53:40;36.38;;;19.20;;
49978;SDS011;35869;50.990;6.962;2022-12-18T17:58:41;28.65;;;14.73;;
49978;SDS011;35869;50.990;6.962;2022-12-18T18:03:42;33.60;;;18.48;;
49978;SDS011;35869;50.990;6.962;2022-12-18T18:08:42;28.93;;;19.70;;
49978;SDS011;35869;50.990;6.962;2022-12-18T18:13:43;35.33;;;18.90;;
49978;SDS011;35869;50.990;6.962;2022-12-18T18:18:43;31.67;;;20.48;;
49978;SDS011;35869;50.990;6.962;2022-12-18T18:23:43;34.22;;;21.02;;
49978;SDS011;35869;50.990;6.962;2022-12-18T18:28:43;32.22;;;19.80;;
49978;SDS011;35869;50.990;6.962;2022-12-18T18:33:43;32.10;;;19.63;;
49978;SDS011;35869;50.990;6.962;2022-12-18T18:38:44;32.55;;;21.02;;
49978;SDS011;35869;50.990;6.962;2022-12-18T18:43:44;31.80;;;18.55;;
49978;SDS011;35869;50.990;6.962;2022-12-18T18:48:44;32.15;;;19.20;;
49978;SDS011;35869;50.990;6.962;2022-12-18T18:53:45;33.40;;;20.50;;
49978;SDS011;35869;50.990;6.962;2022-12-18T18:58:47;31.30;;;19.42;;
49978;SDS011;35869;50.990;6.962;2022-12-18T19:03:47;33.65;;;19.67;;
49978;SDS011;35869;50.990;6.962;2022-12-18T19:08:48;33.85;;;20.10;;
49978;SDS011;35869;50.990;6.962;2022-12-18T19:13:49;36.58;;;20.95;;
49978;SDS011;35869;50.990;6.962;2022-12-18T19:18:49;34.80;;;20.23;;
49978;SDS011;35869;50.990;6.962;2022-12-18T19:23:50;35.13;;;20.37;;
49978;SDS011;35869;50.990;6.962;2022-12-18T19:28:50;31.60;;;18.03;;
49978;SDS011;35869;50.990;6.962;2022-12-18T19:33:50;32.85;;;19.15;;
49978;SDS011;35869;50.990;6.962;2022-12-18T19:38:51;37.05;;;19.05;;
49978;SDS011;35869;50.990;6.962;2022-12-18T19:43:53;38.28;;;20.70;;
49978;SDS011;35869;50.990;6.962;2022-12-18T19:48:53;33.60;;;20.80;;
49978;SDS011;35869;50.990;6.962;2022-12-18T19:53:53;36.22;;;18.90;;
49978;SDS011;35869;50.990;6.962;2022-12-18T19:58:54;33.20;;;18.63;;
49978;SDS011;35869;50.990;6.962;2022-12-18T20:03:55;37.75;;;20.17;;
49978;SDS011;35869;50.990;6.962;2022-12-18T20:08:56;33.23;;;19.73;;
49978;SDS011;35869;50.990;6.962;2022-12-18T20:13:59;30.95;;;18.42;;
49978;SDS011;35869;50.990;6.962;2022-12-18T20:18:59;34.63;;;20.58;;
49978;SDS011;35869;50.990;6.962;2022-12-18T20:23:59;36.97;;;18.58;;
49978;SDS011;35869;50.990;6.962;2022-12-18T20:29:00;34.03;;;18.98;;
49978;SDS011;35869;50.990;6.962;2022-12-18T20:34:00;33.97;;;18.67;;
49978;SDS011;35869;50.990;6.962;2022-12-18T20:39:01;35.23;;;17.90;;
49978;SDS011;35869;50.990;6.962;2022-12-18T20:44:02;37.28;;;18.38;;
49978;SDS011;35869;50.990;6.962;2022-12-18T20:49:03;36.83;;;21.70;;
49978;SDS011;35869;50.990;6.962;2022-12-18T20:54:03;32.83;;;18.88;;
49978;SDS011;35869;50.990;6.962;2022-12-18T20:59:03;37.90;;;21.47;;
49978;SDS011;35869;50.990;6.962;2022-12-18T21:04:04;33.83;;;21.05;;
49978;SDS011;35869;50.990;6.962;2022-12-18T21:09:04;36.63;;;19.57;;
49978;SDS011;35869;50.990;6.962;2022-12-18T21:14:08;32.35;;;18.80;;
49978;SDS011;35869;50.990;6.962;2022-12-18T21:19:16;35.83;;;19.70;;
49978;SDS011;35869;50.990;6.962;2022-12-18T21:24:18;31.33;;;17.92;;
49978;SDS011;35869;50.990;6.962;2022-12-18T21:29:22;33.33;;;19.67;;
49978;SDS011;35869;50.990;6.962;2022-12-18T21:34:25;34.08;;;19.70;;
49978;SDS011;35869;50.990;6.962;2022-12-18T21:39:26;33.42;;;19.02;;
49978;SDS011;35869;50.990;6.962;2022-12-18T21:44:28;34.38;;;19.42;;
49978;SDS011;35869;50.990;6.962;2022-12-18T21:49:29;36.78;;;20.38;;
49978;SDS011;35869;50.990;6.962;2022-12-18T21:54:29;40.97;;;22.37;;
49978;SDS011;35869;50.990;6.962;2022-12-18T21:59:32;39.60;;;23.00;;
49978;SDS011;35869;50.990;6.962;2022-12-18T22:04:39;44.70;;;24.10;;
49978;SDS011;35869;50.990;6.962;2022-12-18T22:09:40;40.65;;;23.30;;
49978;SDS011;35869;50.990;6.962;2022-12-18T22:14:41;45.17;;;24.45;;
49978;SDS011;35869;50.990;6.962;2022-12-18T22:19:41;43.63;;;23.35;;
49978;SDS011;35869;50.990;6.962;2022-12-18T22:24:41;38.05;;;23.40;;
49978;SDS011;35869;50.990;6.962;2022-12-18T22:29:41;38.20;;;24.10;;
49978;SDS011;35869;50.990;6.962;2022-12-18T22:34:42;36.80;;;23.50;;
49978;SDS011;35869;50.990;6.962;2022-12-18T22:39:42;50.85;;;26.10;;
49978;SDS011;35869;50.990;6.962;2022-12-18T22:44:42;43.55;;;24.15;;
49978;SDS011;35869;50.990;6.962;2022-12-18T22:49:42;37.42;;;22.80;;
49978;SDS011;35869;50.990;6.962;2022-12-18T22:54:42;41.85;;;24.40;;
49978;SDS011;35869;50.990;6.962;2022-12-18T22:59:43;44.40;;;24.48;;
49978;SDS011;35869;50.990;6.962;2022-12-18T23:04:43;43.17;;;24.63;;
49978;SDS011;35869;50.990;6.962;2022-12-18T23:09:43;39.67;;;23.10;;
49978;SDS011;35869;50.990;6.962;2022-12-18T23:14:44;42.97;;;22.92;;
49978;SDS011;35869;50.990;6.962;2022-12-18T23:19:44;43.90;;;26.08;;
49978;SDS011;35869;50.990;6.962;2022-12-18T23:24:44;49.35;;;26.90;;
49978;SDS011;35869;50.990;6.962;2022-12-18T23:29:45;49.53;;;27.93;;
49978;SDS011;35869;50.990;6.962;2022-12-18T23:34:45;51.40;;;28.00;;
49978;SDS011;35869;50.990;6.962;2022-12-18T23:39:45;41.58;;;26.08;;
49978;SDS011;35869;50.990;6.962;2022-12-18T23:44:45;48.37;;;25.50;;
49978;SDS011;35869;50.990;6.962;2022-12-18T23:49:46;42.67;;;23.65;;
49978;SDS011;35869;50.990;6.962;2022-12-18T23:54:46;40.45;;;23.60;;
49978;SDS011;35869;50.990;6.962;2022-12-18T23:59:46;49.08;;;27.38;;
